Time;durP1;ratioP1;P1;durP2;ratioP2;P2;SDS_P1;SDS_P2;PMS_P1;PMS_P2;Temp;Humidity;BMP_temperature;BMP_pressure;BME280_temperature;BME280_humidity;BME280_pressure;Samples;Min_cycle;Max_cycle;Signal;HPM_P1;HPM_P2
2022/07/29 00:00:15;;;;;;;3.33;1.77;;;;;;;;;;5005492;28;20050;-75
2022/07/29 00:02:41;;;;;;;2.17;1.52;;;;;;;;;;5006759;28;20042;-75
2022/07/29 00:05:09;;;;;;;3.05;1.70;;;;;;;;;;5009111;28;20057;-75
2022/07/29 00:07:35;;;;;;;2.30;1.70;;;;;;;;;;5010309;28;20047;-75
2022/07/29 00:10:01;;;;;;;2.22;1.50;;;;;;;;;;5000788;28;20049;-75
2022/07/29 00:12:27;;;;;;;2.20;1.65;;;;;;;;;;5006477;28;20042;-76
2022/07/29 00:14:54;;;;;;;2.05;1.65;;;;;;;;;;5001290;28;20457;-75
2022/07/29 00:17:21;;;;;;;3.22;1.40;;;;;;;;;;5007164;28;20060;-75
2022/07/29 00:19:47;;;;;;;2.17;1.60;;;;;;;;;;5005708;28;20125;-75
2022/07/29 00:22:13;;;;;;;2.40;1.75;;;;;;;;;;5007180;28;20069;-75
2022/07/29 00:24:39;;;;;;;2.40;1.65;;;;;;;;;;5003733;28;20050;-75
2022/07/29 00:27:05;;;;;;;1.85;1.60;;;;;;;;;;5006026;28;20053;-75
2022/07/29 00:29:31;;;;;;;3.20;1.90;;;;;;;;;;5004938;28;20046;-74
2022/07/29 00:31:57;;;;;;;2.92;1.80;;;;;;;;;;4990888;28;20038;-75
2022/07/29 00:37:08;;;;;;;1.65;1.55;;;;;;;;;;4999353;28;20046;-75
2022/07/29 00:39:34;;;;;;;1.98;1.65;;;;;;;;;;4996093;28;20065;-75
2022/07/29 00:42:02;;;;;;;4.07;2.13;;;;;;;;;;5001529;28;20057;-75
2022/07/29 00:44:28;;;;;;;2.60;1.50;;;;;;;;;;5007290;28;20641;-75
2022/07/29 00:46:54;;;;;;;2.92;1.90;;;;;;;;;;5008913;28;20084;-75
2022/07/29 00:49:20;;;;;;;2.35;1.70;;;;;;;;;;5008581;28;20176;-75
2022/07/29 00:51:46;;;;;;;3.17;2.00;;;;;;;;;;5008441;28;20473;-75
2022/07/29 00:54:12;;;;;;;2.15;1.75;;;;;;;;;;5006258;28;20053;-76
2022/07/29 00:56:38;;;;;;;2.00;1.77;;;;;;;;;;5002150;28;20046;-75
2022/07/29 00:59:04;;;;;;;3.03;1.88;;;;;;;;;;5002182;28;20042;-75
2022/07/29 01:01:30;;;;;;;2.20;1.80;;;;;;;;;;4999046;28;20049;-75
2022/07/29 01:03:56;;;;;;;3.72;1.85;;;;;;;;;;5000710;28;20050;-75
2022/07/29 01:06:23;;;;;;;2.42;1.90;;;;;;;;;;5000073;28;20434;-76
2022/07/29 01:08:49;;;;;;;3.35;2.03;;;;;;;;;;4999022;28;20478;-75
2022/07/29 01:11:16;;;;;;;1.85;1.75;;;;;;;;;;5004094;28;20485;-75
2022/07/29 01:13:44;;;;;;;2.75;1.88;;;;;;;;;;5003187;28;20401;-75
2022/07/29 01:16:15;;;;;;;2.50;2.00;;;;;;;;;;5003840;28;20070;-75
2022/07/29 01:18:49;;;;;;;2.63;1.90;;;;;;;;;;5000377;28;20046;-75
2022/07/29 01:21:34;;;;;;;2.65;1.83;;;;;;;;;;5004428;28;20097;-75
2022/07/29 01:24:15;;;;;;;3.97;1.90;;;;;;;;;;5002837;28;20120;-75
2022/07/29 01:26:42;;;;;;;2.47;2.03;;;;;;;;;;5002932;28;20396;-75
2022/07/29 01:29:19;;;;;;;3.92;2.20;;;;;;;;;;4992928;28;20046;-75
2022/07/29 01:31:45;;;;;;;2.05;1.85;;;;;;;;;;4985392;28;20053;-75
2022/07/29 01:34:12;;;;;;;1.92;1.80;;;;;;;;;;4989554;28;20050;-75
2022/07/29 01:36:44;;;;;;;4.53;2.08;;;;;;;;;;4980446;28;20055;-75
2022/07/29 01:39:23;;;;;;;2.65;1.80;;;;;;;;;;4993175;28;20125;-75
2022/07/29 01:42:02;;;;;;;3.30;1.80;;;;;;;;;;4999229;28;20065;-75
2022/07/29 01:44:32;;;;;;;2.97;1.80;;;;;;;;;;4997549;28;20046;-75
2022/07/29 01:46:59;;;;;;;3.00;1.85;;;;;;;;;;5005496;28;20038;-75
2022/07/29 01:49:28;;;;;;;2.72;1.92;;;;;;;;;;4998085;28;20099;-75
2022/07/29 01:52:11;;;;;;;3.92;1.80;;;;;;;;;;5004931;28;20085;-75
2022/07/29 01:54:42;;;;;;;3.05;2.03;;;;;;;;;;5008359;28;20129;-75
2022/07/29 01:57:09;;;;;;;2.40;2.00;;;;;;;;;;5008918;28;20494;-74
2022/07/29 01:59:36;;;;;;;1.90;1.80;;;;;;;;;;5005101;28;20045;-75
2022/07/29 02:02:02;;;;;;;2.67;1.80;;;;;;;;;;5001818;28;20061;-75
2022/07/29 02:04:29;;;;;;;2.72;1.70;;;;;;;;;;5001257;28;20069;-76
2022/07/29 02:06:57;;;;;;;2.42;1.88;;;;;;;;;;4995138;28;20141;-75
2022/07/29 02:09:25;;;;;;;3.00;2.17;;;;;;;;;;5004024;28;20088;-75
2022/07/29 02:11:53;;;;;;;2.58;2.20;;;;;;;;;;4999652;28;20045;-75
2022/07/29 02:14:21;;;;;;;3.13;2.00;;;;;;;;;;5006615;28;20401;-75
2022/07/29 02:16:49;;;;;;;3.28;2.00;;;;;;;;;;5004607;28;20088;-75
2022/07/29 02:19:17;;;;;;;2.50;2.05;;;;;;;;;;5002279;28;20088;-75
2022/07/29 02:21:44;;;;;;;4.63;2.08;;;;;;;;;;4997573;28;20046;-75
2022/07/29 02:24:11;;;;;;;2.40;2.10;;;;;;;;;;5005516;28;20046;-75
2022/07/29 02:26:38;;;;;;;2.20;1.90;;;;;;;;;;4995745;28;20046;-75
2022/07/29 02:29:05;;;;;;;4.57;2.00;;;;;;;;;;4994950;28;20073;-75
2022/07/29 02:31:34;;;;;;;2.10;1.90;;;;;;;;;;4986899;28;20072;-75
2022/07/29 02:34:01;;;;;;;4.53;2.10;;;;;;;;;;4999044;28;20046;-75
2022/07/29 02:36:28;;;;;;;4.22;2.08;;;;;;;;;;4997264;28;20037;-75
2022/07/29 02:38:57;;;;;;;3.15;2.22;;;;;;;;;;5005287;28;20046;-75
2022/07/29 02:41:43;;;;;;;2.15;1.95;;;;;;;;;;5002883;28;20056;-75
2022/07/29 02:44:11;;;;;;;2.30;2.10;;;;;;;;;;4993856;28;20065;-75
2022/07/29 02:46:38;;;;;;;2.67;2.20;;;;;;;;;;5002888;28;20042;-75
2022/07/29 02:49:09;;;;;;;4.10;2.22;;;;;;;;;;5006081;28;20037;-75
2022/07/29 02:51:41;;;;;;;2.95;2.00;;;;;;;;;;5003507;28;20140;-76
2022/07/29 02:54:08;;;;;;;3.92;2.30;;;;;;;;;;5005314;28;20470;-75
2022/07/29 02:56:34;;;;;;;4.50;2.08;;;;;;;;;;5003053;28;20097;-75
2022/07/29 02:59:03;;;;;;;3.70;2.25;;;;;;;;;;5008900;28;20072;-75
2022/07/29 03:01:32;;;;;;;2.83;2.13;;;;;;;;;;5005171;28;20169;-75
2022/07/29 03:04:00;;;;;;;3.30;2.10;;;;;;;;;;5004016;28;20049;-75
2022/07/29 03:06:27;;;;;;;2.95;2.00;;;;;;;;;;5011333;28;20458;-75
2022/07/29 03:08:54;;;;;;;5.60;2.60;;;;;;;;;;5008147;28;20053;-75
2022/07/29 03:11:21;;;;;;;2.25;2.05;;;;;;;;;;5010955;28;20042;-76
2022/07/29 03:13:47;;;;;;;2.58;2.08;;;;;;;;;;5005062;28;20056;-75
2022/07/29 03:16:13;;;;;;;2.38;2.10;;;;;;;;;;5011160;28;20030;-75
2022/07/29 03:18:39;;;;;;;4.72;2.17;;;;;;;;;;5002704;28;20424;-75
2022/07/29 03:21:06;;;;;;;2.30;2.10;;;;;;;;;;5004074;28;20128;-75
2022/07/29 03:23:32;;;;;;;3.65;2.10;;;;;;;;;;5006653;28;20038;-75
2022/07/29 03:25:58;;;;;;;2.80;2.05;;;;;;;;;;5003235;28;20048;-75
2022/07/29 03:28:24;;;;;;;2.90;1.85;;;;;;;;;;4992161;28;20050;-75
2022/07/29 03:30:50;;;;;;;3.55;2.03;;;;;;;;;;4985099;28;20195;-75
2022/07/29 03:33:16;;;;;;;1.98;1.88;;;;;;;;;;4990699;28;20046;-75
2022/07/29 03:35:42;;;;;;;4.70;2.30;;;;;;;;;;5004666;28;20100;-75
2022/07/29 03:38:08;;;;;;;2.83;2.08;;;;;;;;;;5007761;28;20054;-75
2022/07/29 03:40:38;;;;;;;2.75;2.00;;;;;;;;;;5000374;28;20045;-75
2022/07/29 03:43:06;;;;;;;3.53;1.95;;;;;;;;;;5006753;28;20068;-75
2022/07/29 03:45:32;;;;;;;3.80;2.00;;;;;;;;;;4999349;28;20478;-75
2022/07/29 03:48:01;;;;;;;3.55;2.10;;;;;;;;;;4995779;28;20047;-75
2022/07/29 03:50:28;;;;;;;2.42;2.20;;;;;;;;;;4988571;28;20042;-75
2022/07/29 03:52:54;;;;;;;2.83;2.30;;;;;;;;;;4998810;28;20489;-75
2022/07/29 03:55:21;;;;;;;3.08;2.35;;;;;;;;;;5011054;28;20060;-75
2022/07/29 03:57:47;;;;;;;5.38;2.15;;;;;;;;;;5004492;28;20096;-75
2022/07/29 04:00:15;;;;;;;1.92;1.83;;;;;;;;;;4996395;28;20074;-74
2022/07/29 04:02:46;;;;;;;2.50;2.20;;;;;;;;;;5003993;28;20088;-75
2022/07/29 04:05:13;;;;;;;3.97;2.38;;;;;;;;;;5006727;28;20540;-75
2022/07/29 04:07:39;;;;;;;4.00;2.50;;;;;;;;;;5006026;28;20073;-75
2022/07/29 04:10:05;;;;;;;4.15;2.13;;;;;;;;;;5003378;28;20053;-75
2022/07/29 04:12:31;;;;;;;4.22;2.20;;;;;;;;;;5004300;28;20072;-75
2022/07/29 04:14:57;;;;;;;4.38;2.42;;;;;;;;;;5005758;28;20069;-75
2022/07/29 04:17:23;;;;;;;3.20;2.10;;;;;;;;;;5007406;28;20124;-75
2022/07/29 04:19:49;;;;;;;4.72;2.22;;;;;;;;;;5004193;28;20453;-75
2022/07/29 04:22:15;;;;;;;3.92;2.30;;;;;;;;;;5001601;28;20130;-75
2022/07/29 04:24:41;;;;;;;3.85;2.40;;;;;;;;;;5007397;28;20049;-75
2022/07/29 04:27:07;;;;;;;4.03;2.10;;;;;;;;;;5001549;28;20397;-75
2022/07/29 04:29:33;;;;;;;3.60;2.00;;;;;;;;;;4994767;28;20042;-75
2022/07/29 04:31:59;;;;;;;5.72;2.40;;;;;;;;;;4992917;28;20480;-75
2022/07/29 04:34:25;;;;;;;2.30;2.10;;;;;;;;;;5008303;28;20050;-75
2022/07/29 04:36:51;;;;;;;2.42;2.03;;;;;;;;;;4990537;28;20410;-75
2022/07/29 04:39:18;;;;;;;2.97;2.10;;;;;;;;;;4985421;28;20418;-75
2022/07/29 04:41:44;;;;;;;2.40;2.20;;;;;;;;;;4998617;28;20176;-75
2022/07/29 04:44:10;;;;;;;2.60;2.28;;;;;;;;;;5004158;28;20057;-75
2022/07/29 04:46:36;;;;;;;2.70;1.98;;;;;;;;;;5000042;28;20038;-75
2022/07/29 04:49:03;;;;;;;4.22;2.10;;;;;;;;;;5009558;28;20505;-75
2022/07/29 04:51:29;;;;;;;2.35;2.13;;;;;;;;;;4997866;28;20053;-75
2022/07/29 04:53:55;;;;;;;4.43;2.30;;;;;;;;;;5008926;28;20448;-75
2022/07/29 04:56:21;;;;;;;3.03;2.00;;;;;;;;;;5007028;28;20049;-75
2022/07/29 04:58:47;;;;;;;2.78;2.10;;;;;;;;;;5007791;28;20176;-75
2022/07/29 05:01:14;;;;;;;4.10;2.45;;;;;;;;;;4999296;28;20120;-75
2022/07/29 05:03:40;;;;;;;3.50;1.95;;;;;;;;;;5001478;28;20393;-75
2022/07/29 05:06:06;;;;;;;3.03;2.03;;;;;;;;;;5008208;28;20095;-75
2022/07/29 05:08:32;;;;;;;3.67;1.92;;;;;;;;;;5005125;28;20121;-75
2022/07/29 05:10:58;;;;;;;3.45;2.00;;;;;;;;;;5005592;28;20573;-75
2022/07/29 05:13:24;;;;;;;4.18;2.13;;;;;;;;;;5005806;28;20140;-75
2022/07/29 05:15:50;;;;;;;3.15;1.83;;;;;;;;;;5004390;28;20050;-75
2022/07/29 05:18:16;;;;;;;5.28;2.13;;;;;;;;;;5006760;28;20041;-75
2022/07/29 05:20:42;;;;;;;5.03;2.30;;;;;;;;;;4995097;28;20049;-75
2022/07/29 05:23:08;;;;;;;4.22;2.20;;;;;;;;;;5004234;28;20437;-75
2022/07/29 05:25:34;;;;;;;5.38;2.60;;;;;;;;;;5007525;28;20124;-75
2022/07/29 05:28:00;;;;;;;2.72;2.00;;;;;;;;;;5006724;28;20068;-75
2022/07/29 05:30:26;;;;;;;3.10;1.90;;;;;;;;;;5004609;28;20123;-75
2022/07/29 05:32:52;;;;;;;4.45;1.92;;;;;;;;;;5000993;28;20615;-75
2022/07/29 05:35:18;;;;;;;2.78;1.77;;;;;;;;;;4995436;28;20069;-75
2022/07/29 05:37:44;;;;;;;2.85;1.83;;;;;;;;;;5012203;28;20092;-75
2022/07/29 05:40:11;;;;;;;4.85;2.10;;;;;;;;;;5008038;28;20042;-75
2022/07/29 05:42:37;;;;;;;3.15;1.80;;;;;;;;;;5007743;28;20627;-75
2022/07/29 05:45:03;;;;;;;3.03;1.83;;;;;;;;;;5001751;28;20432;-75
2022/07/29 05:47:30;;;;;;;2.40;2.20;;;;;;;;;;5005151;28;20042;-74
2022/07/29 05:49:56;;;;;;;5.20;2.08;;;;;;;;;;5001109;28;20038;-74
2022/07/29 05:52:22;;;;;;;3.20;1.90;;;;;;;;;;4998074;28;20042;-75
2022/07/29 05:54:48;;;;;;;3.45;1.90;;;;;;;;;;5001373;28;20168;-74
2022/07/29 05:57:18;;;;;;;6.63;2.20;;;;;;;;;;4995884;28;20045;-74
2022/07/29 05:59:44;;;;;;;3.75;2.08;;;;;;;;;;5010924;28;20037;-74
2022/07/29 06:02:11;;;;;;;3.38;2.13;;;;;;;;;;5007157;28;20057;-74
2022/07/29 06:04:37;;;;;;;2.67;1.98;;;;;;;;;;5006650;28;20038;-74
2022/07/29 06:07:03;;;;;;;6.20;1.95;;;;;;;;;;5006795;28;20129;-75
2022/07/29 06:09:30;;;;;;;2.97;1.75;;;;;;;;;;4998353;28;20046;-75
2022/07/29 06:11:57;;;;;;;3.17;1.80;;;;;;;;;;5009501;28;20041;-75
2022/07/29 06:14:23;;;;;;;2.88;1.85;;;;;;;;;;4997009;28;20089;-75
2022/07/29 06:16:49;;;;;;;2.63;1.80;;;;;;;;;;5004275;28;20085;-75
2022/07/29 06:19:15;;;;;;;3.35;1.92;;;;;;;;;;5007723;28;20045;-76
2022/07/29 06:21:43;;;;;;;2.75;2.00;;;;;;;;;;4999731;28;20045;-75
2022/07/29 06:24:09;;;;;;;2.58;1.92;;;;;;;;;;5008037;28;20057;-74
2022/07/29 06:26:35;;;;;;;3.13;1.83;;;;;;;;;;5006917;28;20437;-75
2022/07/29 06:29:01;;;;;;;3.72;2.00;;;;;;;;;;5008731;28;20045;-75
2022/07/29 06:31:27;;;;;;;2.90;2.38;;;;;;;;;;5005540;28;20124;-75
2022/07/29 06:33:53;;;;;;;5.68;2.10;;;;;;;;;;5004793;28;20554;-75
2022/07/29 06:36:19;;;;;;;2.97;2.00;;;;;;;;;;5007894;28;20046;-75
2022/07/29 06:38:45;;;;;;;3.60;1.85;;;;;;;;;;5010552;28;20104;-75
2022/07/29 06:41:12;;;;;;;3.67;1.60;;;;;;;;;;5004373;28;20129;-75
2022/07/29 06:43:41;;;;;;;5.65;2.00;;;;;;;;;;4996432;28;20133;-75
2022/07/29 06:46:09;;;;;;;5.00;2.17;;;;;;;;;;5018754;28;20061;-74
2022/07/29 06:48:35;;;;;;;3.80;1.90;;;;;;;;;;5009818;28;20069;-74
2022/07/29 06:51:02;;;;;;;5.28;2.17;;;;;;;;;;5011442;28;20085;-74
2022/07/29 06:53:29;;;;;;;3.00;1.90;;;;;;;;;;5007727;28;20030;-75
2022/07/29 06:55:54;;;;;;;4.57;1.88;;;;;;;;;;5011130;28;20053;-75
2022/07/29 06:58:21;;;;;;;4.03;1.77;;;;;;;;;;5007619;28;20046;-75
2022/07/29 07:00:47;;;;;;;3.13;1.67;;;;;;;;;;5008174;28;20042;-75
2022/07/29 07:03:14;;;;;;;5.22;1.80;;;;;;;;;;5009398;28;20092;-75
2022/07/29 07:05:40;;;;;;;5.78;1.88;;;;;;;;;;5007923;28;20061;-75
2022/07/29 07:08:06;;;;;;;3.25;1.63;;;;;;;;;;5008338;28;20084;-75
2022/07/29 07:10:33;;;;;;;4.65;1.88;;;;;;;;;;5013840;28;20048;-75
2022/07/29 07:12:59;;;;;;;3.60;2.10;;;;;;;;;;5007493;28;20069;-76
2022/07/29 07:15:25;;;;;;;3.45;1.90;;;;;;;;;;5008096;28;20080;-75
2022/07/29 07:17:51;;;;;;;4.03;2.00;;;;;;;;;;5014540;28;20101;-75
2022/07/29 07:20:18;;;;;;;3.53;2.00;;;;;;;;;;5010494;28;20042;-76
2022/07/29 07:22:44;;;;;;;10.07;5.72;;;;;;;;;;5004803;28;20042;-75
2022/07/29 07:25:10;;;;;;;3.95;1.90;;;;;;;;;;5006021;28;20117;-75
2022/07/29 07:27:37;;;;;;;4.43;2.00;;;;;;;;;;5012922;28;20033;-75
2022/07/29 07:30:05;;;;;;;4.18;1.88;;;;;;;;;;5009676;28;20037;-74
2022/07/29 07:32:31;;;;;;;4.20;1.85;;;;;;;;;;5004342;28;20046;-75
2022/07/29 07:34:58;;;;;;;4.35;1.98;;;;;;;;;;5000429;28;20042;-75
2022/07/29 07:37:24;;;;;;;3.35;1.70;;;;;;;;;;5010280;28;20081;-74
2022/07/29 07:39:51;;;;;;;3.15;1.95;;;;;;;;;;5005035;28;20050;-75
2022/07/29 07:42:17;;;;;;;6.85;2.17;;;;;;;;;;5003118;28;20929;-75
2022/07/29 07:44:45;;;;;;;4.00;2.00;;;;;;;;;;5012585;28;20057;-75
2022/07/29 07:47:11;;;;;;;5.43;2.20;;;;;;;;;;5007408;28;20045;-75
2022/07/29 07:49:37;;;;;;;3.30;2.10;;;;;;;;;;5011178;28;20448;-75
2022/07/29 07:52:03;;;;;;;5.75;1.92;;;;;;;;;;5007520;28;20121;-75
2022/07/29 07:54:29;;;;;;;5.40;2.10;;;;;;;;;;5009422;28;20165;-76
2022/07/29 07:56:55;;;;;;;3.45;2.08;;;;;;;;;;5007278;28;20089;-74
2022/07/29 07:59:21;;;;;;;3.25;2.10;;;;;;;;;;5014221;28;20559;-75
2022/07/29 08:01:47;;;;;;;3.38;1.80;;;;;;;;;;5007358;28;20052;-75
2022/07/29 08:04:13;;;;;;;2.88;2.03;;;;;;;;;;5012018;28;20037;-75
2022/07/29 08:06:39;;;;;;;4.80;2.20;;;;;;;;;;5003781;28;20057;-75
2022/07/29 08:09:06;;;;;;;3.65;2.03;;;;;;;;;;5002791;28;20053;-75
2022/07/29 08:11:32;;;;;;;3.00;2.13;;;;;;;;;;5005965;28;20419;-75
2022/07/29 08:13:58;;;;;;;5.20;2.10;;;;;;;;;;5010255;28;20053;-75
2022/07/29 08:16:25;;;;;;;4.05;2.00;;;;;;;;;;5008080;28;20046;-75
2022/07/29 08:18:51;;;;;;;3.50;2.00;;;;;;;;;;5011482;28;20406;-75
2022/07/29 08:21:18;;;;;;;3.55;2.00;;;;;;;;;;5005417;28;20410;-75
2022/07/29 08:23:52;;;;;;;5.75;2.30;;;;;;;;;;5007896;28;20046;-75
2022/07/29 08:26:19;;;;;;;4.68;2.10;;;;;;;;;;5005032;28;20140;-76
2022/07/29 08:28:45;;;;;;;4.60;1.90;;;;;;;;;;5010103;28;20081;-75
2022/07/29 08:31:12;;;;;;;4.68;2.13;;;;;;;;;;5002130;28;20046;-76
2022/07/29 08:33:38;;;;;;;5.30;2.10;;;;;;;;;;5005736;28;20049;-75
2022/07/29 08:36:05;;;;;;;3.70;2.10;;;;;;;;;;4997426;28;20129;-76
2022/07/29 08:38:31;;;;;;;3.15;2.15;;;;;;;;;;5008298;28;20042;-75
2022/07/29 08:40:57;;;;;;;3.55;2.08;;;;;;;;;;5008869;28;20054;-75
2022/07/29 08:43:23;;;;;;;3.42;1.90;;;;;;;;;;5002405;28;20089;-76
2022/07/29 08:45:50;;;;;;;3.45;2.13;;;;;;;;;;4996752;28;20058;-75
2022/07/29 08:48:20;;;;;;;6.78;2.10;;;;;;;;;;4994306;28;20053;-76
2022/07/29 08:50:47;;;;;;;6.68;2.08;;;;;;;;;;5000294;28;20088;-75
2022/07/29 08:53:14;;;;;;;3.92;2.00;;;;;;;;;;4997367;28;20049;-75
2022/07/29 08:55:44;;;;;;;4.40;2.20;;;;;;;;;;5003736;28;20049;-75
2022/07/29 08:58:10;;;;;;;5.47;2.25;;;;;;;;;;5011722;28;20130;-75
2022/07/29 09:00:37;;;;;;;2.72;1.80;;;;;;;;;;5009689;28;20418;-75
2022/07/29 09:03:04;;;;;;;5.25;2.13;;;;;;;;;;5005338;28;20481;-75
2022/07/29 09:05:31;;;;;;;5.07;2.20;;;;;;;;;;5003757;28;20125;-75
2022/07/29 09:07:57;;;;;;;6.70;2.05;;;;;;;;;;5006044;28;20042;-75
2022/07/29 09:10:23;;;;;;;3.38;2.10;;;;;;;;;;5004141;28;20436;-75
2022/07/29 09:12:49;;;;;;;4.72;2.17;;;;;;;;;;5007205;28;20068;-75
2022/07/29 09:15:15;;;;;;;3.95;2.13;;;;;;;;;;4995417;28;20097;-75
2022/07/29 09:17:49;;;;;;;3.95;2.10;;;;;;;;;;4998981;28;20038;-75
2022/07/29 09:20:17;;;;;;;3.50;1.98;;;;;;;;;;5004765;28;20383;-76
2022/07/29 09:22:43;;;;;;;5.63;1.85;;;;;;;;;;5001803;28;20116;-75
2022/07/29 09:25:09;;;;;;;4.03;2.05;;;;;;;;;;5013076;28;20107;-75
2022/07/29 09:27:35;;;;;;;4.15;2.20;;;;;;;;;;5009235;28;20084;-76
2022/07/29 09:30:01;;;;;;;2.55;2.10;;;;;;;;;;5013199;28;20125;-75
2022/07/29 09:32:29;;;;;;;3.42;2.03;;;;;;;;;;5010257;28;20092;-75
2022/07/29 09:35:16;;;;;;;5.43;2.22;;;;;;;;;;5007516;28;20062;-75
2022/07/29 09:37:42;;;;;;;5.90;2.08;;;;;;;;;;4998512;28;20076;-75
2022/07/29 09:40:21;;;;;;;5.07;2.20;;;;;;;;;;5011766;28;20049;-75
2022/07/29 09:42:48;;;;;;;8.80;2.28;;;;;;;;;;5003782;28;20056;-75
2022/07/29 09:45:26;;;;;;;6.38;2.30;;;;;;;;;;5006823;28;20060;-75
2022/07/29 09:47:53;;;;;;;5.93;2.30;;;;;;;;;;5004908;28;20408;-75
2022/07/29 09:50:23;;;;;;;4.05;2.20;;;;;;;;;;5001142;28;20103;-75
2022/07/29 09:52:53;;;;;;;5.53;2.22;;;;;;;;;;5002261;28;20053;-75
2022/07/29 09:55:19;;;;;;;5.43;2.20;;;;;;;;;;5005336;28;20378;-75
2022/07/29 09:57:46;;;;;;;4.90;2.33;;;;;;;;;;5003018;28;20048;-75
2022/07/29 10:00:17;;;;;;;7.78;2.42;;;;;;;;;;5008770;28;20049;-75
2022/07/29 10:02:44;;;;;;;10.57;2.20;;;;;;;;;;5004751;28;20541;-75
2022/07/29 10:05:18;;;;;;;4.88;2.20;;;;;;;;;;5003104;28;20079;-75
2022/07/29 10:07:46;;;;;;;8.23;2.60;;;;;;;;;;5002628;28;20038;-75
2022/07/29 10:10:19;;;;;;;4.55;2.03;;;;;;;;;;4999055;28;20050;-75
2022/07/29 10:12:49;;;;;;;3.90;2.30;;;;;;;;;;5009576;28;20505;-75
2022/07/29 10:15:16;;;;;;;5.00;2.28;;;;;;;;;;5009848;28;20050;-75
2022/07/29 10:17:42;;;;;;;7.35;2.45;;;;;;;;;;5004925;28;20076;-76
2022/07/29 10:20:08;;;;;;;2.53;2.20;;;;;;;;;;5003071;28;20042;-75
2022/07/29 10:22:35;;;;;;;7.70;2.13;;;;;;;;;;5004284;28;20107;-75
2022/07/29 10:25:02;;;;;;;5.78;2.50;;;;;;;;;;5006383;28;20422;-75
2022/07/29 10:27:28;;;;;;;9.80;2.70;;;;;;;;;;4992679;28;20042;-75
2022/07/29 10:29:54;;;;;;;7.38;2.10;;;;;;;;;;5002470;28;20053;-75
2022/07/29 10:32:34;;;;;;;5.28;2.03;;;;;;;;;;5006994;28;20042;-75
2022/07/29 10:35:09;;;;;;;4.45;2.33;;;;;;;;;;5004433;28;20046;-75
2022/07/29 10:37:54;;;;;;;5.60;2.20;;;;;;;;;;5006272;28;20073;-76
2022/07/29 10:43:15;;;;;;;4.63;2.10;;;;;;;;;;4997949;28;20173;-75
2022/07/29 10:45:41;;;;;;;5.85;2.42;;;;;;;;;;5001069;28;20057;-75
2022/07/29 10:48:08;;;;;;;4.43;2.28;;;;;;;;;;5007519;28;20042;-74
2022/07/29 10:50:58;;;;;;;10.38;2.80;;;;;;;;;;4991461;28;20057;-75
2022/07/29 10:53:25;;;;;;;5.35;2.55;;;;;;;;;;4989988;28;20062;-75
2022/07/29 10:55:52;;;;;;;6.28;2.38;;;;;;;;;;5000201;28;20462;-75
2022/07/29 10:58:25;;;;;;;7.13;2.50;;;;;;;;;;5005753;28;20050;-75
2022/07/29 11:00:52;;;;;;;6.55;2.53;;;;;;;;;;5000421;28;20042;-74
2022/07/29 11:03:37;;;;;;;4.70;2.70;;;;;;;;;;5001596;28;20061;-75
2022/07/29 11:06:03;;;;;;;4.88;2.45;;;;;;;;;;4998791;28;20073;-74
2022/07/29 11:08:30;;;;;;;6.13;2.83;;;;;;;;;;5006307;28;20478;-75
2022/07/29 11:11:32;;;;;;;9.60;3.10;;;;;;;;;;5003085;28;20434;-74
2022/07/29 11:13:58;;;;;;;6.65;2.97;;;;;;;;;;4965086;28;20047;-74
2022/07/29 11:16:25;;;;;;;9.10;2.85;;;;;;;;;;5000279;28;20046;-74
2022/07/29 11:19:10;;;;;;;8.90;2.90;;;;;;;;;;4997840;28;20089;-74
2022/07/29 11:21:36;;;;;;;6.22;3.15;;;;;;;;;;5013188;28;20085;-74
2022/07/29 11:24:12;;;;;;;9.02;3.13;;;;;;;;;;5004199;28;20460;-74
2022/07/29 11:26:38;;;;;;;6.30;3.33;;;;;;;;;;4999958;28;20046;-74
2022/07/29 11:29:17;;;;;;;9.85;3.42;;;;;;;;;;5011597;28;20096;-74
2022/07/29 11:31:44;;;;;;;9.93;3.83;;;;;;;;;;5007878;28;20065;-74
2022/07/29 11:34:29;;;;;;;7.95;3.53;;;;;;;;;;5005572;28;20038;-75
2022/07/29 11:37:13;;;;;;;6.00;3.30;;;;;;;;;;5011623;28;20494;-75
2022/07/29 11:39:42;;;;;;;5.70;2.97;;;;;;;;;;5007735;28;20046;-74
2022/07/29 11:42:17;;;;;;;4.97;2.90;;;;;;;;;;4999873;28;20057;-74
2022/07/29 11:44:58;;;;;;;7.50;3.17;;;;;;;;;;5012193;28;20478;-74
2022/07/29 11:47:25;;;;;;;8.02;3.15;;;;;;;;;;5012307;28;20045;-74
2022/07/29 11:49:52;;;;;;;5.45;2.80;;;;;;;;;;5010186;28;20402;-74
2022/07/29 11:52:19;;;;;;;4.97;3.08;;;;;;;;;;5014887;28;20556;-75
2022/07/29 11:54:47;;;;;;;6.93;2.72;;;;;;;;;;5011897;28;20080;-74
2022/07/29 11:57:14;;;;;;;45.75;42.78;;;;;;;;;;5008513;28;20046;-74
2022/07/29 11:59:41;;;;;;;6.35;3.70;;;;;;;;;;5005825;28;20084;-74
2022/07/29 12:02:10;;;;;;;7.30;2.92;;;;;;;;;;5004738;28;20121;-74
2022/07/29 12:04:56;;;;;;;6.15;2.97;;;;;;;;;;5011091;28;20050;-74
2022/07/29 12:07:28;;;;;;;6.75;2.65;;;;;;;;;;4999367;28;20042;-75
2022/07/29 12:09:54;;;;;;;8.30;3.03;;;;;;;;;;5010681;28;20084;-74
2022/07/29 12:12:21;;;;;;;10.38;3.05;;;;;;;;;;5014827;28;20089;-74
2022/07/29 12:14:47;;;;;;;14.25;3.67;;;;;;;;;;5012089;28;20041;-75
2022/07/29 12:17:27;;;;;;;8.32;3.33;;;;;;;;;;4995795;28;20057;-74
2022/07/29 12:19:53;;;;;;;6.65;3.10;;;;;;;;;;4994153;28;20129;-74
2022/07/29 12:22:48;;;;;;;8.52;3.10;;;;;;;;;;5011697;28;20088;-74
2022/07/29 12:25:16;;;;;;;4.82;3.03;;;;;;;;;;5010856;28;20137;-75
2022/07/29 12:27:44;;;;;;;6.78;3.60;;;;;;;;;;4993170;28;20057;-75
2022/07/29 12:30:10;;;;;;;11.50;3.70;;;;;;;;;;5001457;28;20119;-74
2022/07/29 12:32:38;;;;;;;8.15;3.55;;;;;;;;;;5011975;28;20108;-74
2022/07/29 12:35:09;;;;;;;11.32;3.55;;;;;;;;;;5001651;28;20486;-74
2022/07/29 12:37:36;;;;;;;5.30;3.08;;;;;;;;;;5009940;28;20054;-74
2022/07/29 12:40:03;;;;;;;7.72;3.33;;;;;;;;;;5011325;28;20073;-74
2022/07/29 12:42:29;;;;;;;8.45;3.38;;;;;;;;;;4993887;28;20054;-75
2022/07/29 12:44:55;;;;;;;7.18;4.03;;;;;;;;;;4997920;28;20046;-75
2022/07/29 12:47:21;;;;;;;6.53;3.00;;;;;;;;;;5006656;28;20067;-72
2022/07/29 12:49:48;;;;;;;9.07;3.47;;;;;;;;;;4996193;28;20087;-75
2022/07/29 12:52:24;;;;;;;7.05;3.15;;;;;;;;;;5004930;28;20045;-75
2022/07/29 12:54:51;;;;;;;5.93;2.85;;;;;;;;;;4993842;28;20078;-75
2022/07/29 12:57:17;;;;;;;4.40;2.85;;;;;;;;;;5000443;28;20090;-75
2022/07/29 12:59:43;;;;;;;5.05;2.70;;;;;;;;;;4994185;28;20092;-75
2022/07/29 13:02:21;;;;;;;8.35;2.75;;;;;;;;;;5002201;28;20505;-75
2022/07/29 13:04:55;;;;;;;8.77;2.88;;;;;;;;;;5009138;28;20435;-76
2022/07/29 13:07:25;;;;;;;5.30;2.90;;;;;;;;;;5010771;28;20452;-76
2022/07/29 13:09:51;;;;;;;6.53;3.15;;;;;;;;;;5007889;28;20073;-75
2022/07/29 13:12:17;;;;;;;3.83;2.67;;;;;;;;;;5008505;28;20112;-73
2022/07/29 13:14:44;;;;;;;5.50;2.67;;;;;;;;;;5001418;28;20038;-76
2022/07/29 13:17:10;;;;;;;6.57;2.70;;;;;;;;;;5005754;28;20069;-76
2022/07/29 13:19:41;;;;;;;4.82;2.50;;;;;;;;;;5005519;28;20076;-76
2022/07/29 13:22:08;;;;;;;6.35;2.60;;;;;;;;;;5006563;28;20133;-75
2022/07/29 13:24:34;;;;;;;5.47;2.60;;;;;;;;;;4997054;28;20441;-76
2022/07/29 13:27:00;;;;;;;7.45;2.58;;;;;;;;;;5001709;28;20064;-75
2022/07/29 13:29:26;;;;;;;8.38;3.10;;;;;;;;;;5010105;28;20397;-81
2022/07/29 13:31:52;;;;;;;5.78;3.00;;;;;;;;;;5008923;28;20046;-77
2022/07/29 13:34:21;;;;;;;3.67;2.80;;;;;;;;;;5010861;28;20046;-79
2022/07/29 13:36:47;;;;;;;6.88;2.90;;;;;;;;;;5015926;28;20054;-78
2022/07/29 13:39:13;;;;;;;5.38;2.72;;;;;;;;;;5000313;28;20536;-77
2022/07/29 13:41:39;;;;;;;4.53;2.60;;;;;;;;;;4994227;28;20104;-77
2022/07/29 13:44:05;;;;;;;8.05;2.80;;;;;;;;;;5011025;28;20410;-77
2022/07/29 13:46:31;;;;;;;6.43;2.83;;;;;;;;;;5002367;28;20092;-77
2022/07/29 13:48:57;;;;;;;6.22;2.70;;;;;;;;;;4992740;28;20073;-77
2022/07/29 13:51:23;;;;;;;5.22;3.13;;;;;;;;;;4999026;28;20554;-77
2022/07/29 13:53:49;;;;;;;5.80;2.65;;;;;;;;;;5006086;28;20054;-80
2022/07/29 13:56:15;;;;;;;6.60;2.60;;;;;;;;;;4998656;28;20081;-77
2022/07/29 13:58:41;;;;;;;4.85;2.90;;;;;;;;;;5009393;28;20048;-80
2022/07/29 14:01:08;;;;;;;5.97;2.55;;;;;;;;;;5001453;28;20412;-78
2022/07/29 14:03:36;;;;;;;5.55;2.92;;;;;;;;;;5006161;28;20103;-79
2022/07/29 14:06:02;;;;;;;6.38;2.92;;;;;;;;;;5004018;28;20046;-81
2022/07/29 14:08:28;;;;;;;6.45;2.92;;;;;;;;;;4998794;28;20046;-78
2022/07/29 14:10:54;;;;;;;4.50;2.80;;;;;;;;;;5003435;28;20137;-78
2022/07/29 14:13:20;;;;;;;5.88;2.95;;;;;;;;;;5007390;28;20056;-79
2022/07/29 14:15:46;;;;;;;8.48;2.78;;;;;;;;;;5005152;28;20042;-79
2022/07/29 14:18:12;;;;;;;6.65;2.90;;;;;;;;;;5008488;28;20038;-79
2022/07/29 14:20:38;;;;;;;5.97;2.85;;;;;;;;;;5003576;28;20038;-79
2022/07/29 14:23:04;;;;;;;7.53;2.83;;;;;;;;;;5009557;28;20049;-78
2022/07/29 14:25:30;;;;;;;5.72;3.17;;;;;;;;;;5010977;28;20057;-78
2022/07/29 14:27:56;;;;;;;5.10;2.55;;;;;;;;;;4999927;28;20042;-78
2022/07/29 14:30:22;;;;;;;5.50;2.55;;;;;;;;;;5006559;28;20046;-79
2022/07/29 14:32:49;;;;;;;9.40;2.90;;;;;;;;;;5001820;28;20052;-79
2022/07/29 14:35:15;;;;;;;5.93;2.97;;;;;;;;;;5001986;28;20477;-79
2022/07/29 14:37:41;;;;;;;6.40;2.78;;;;;;;;;;5004642;28;20121;-78
2022/07/29 14:40:08;;;;;;;5.65;2.63;;;;;;;;;;5009957;28;20064;-79
2022/07/29 14:42:34;;;;;;;7.30;3.72;;;;;;;;;;5008606;28;20049;-78
2022/07/29 14:45:00;;;;;;;3.95;2.55;;;;;;;;;;5007164;28;20082;-78
2022/07/29 14:47:26;;;;;;;6.45;2.83;;;;;;;;;;5008829;28;20045;-78
2022/07/29 14:49:52;;;;;;;10.00;2.80;;;;;;;;;;5008614;28;20053;-79
2022/07/29 14:52:18;;;;;;;8.43;2.60;;;;;;;;;;5009479;28;20128;-79